createdAt,value
2019-01-30T00:01:57.504Z,70.70
2019-01-30T00:04:51.554Z,70.40
2019-01-30T00:07:36.142Z,70.30
2019-01-30T00:10:20.821Z,70.30
2019-01-30T00:13:05.970Z,70.30
2019-01-30T00:16:00.310Z,70.20
2019-01-30T00:18:54.447Z,69.30
2019-01-30T00:21:48.018Z,69.30
2019-01-30T00:24:33.413Z,69.00
2019-01-30T00:27:27.514Z,69.10
2019-01-30T00:30:21.130Z,68.40
2019-01-30T00:33:06.083Z,68.60
2019-01-30T00:35:52.165Z,68.50
2019-01-30T00:38:37.042Z,68.20
2019-01-30T00:41:22.242Z,68.00
2019-01-30T00:44:15.914Z,68.10
2019-01-30T00:47:01.210Z,68.10
2019-01-30T00:50:00.754Z,67.50
2019-01-30T00:52:46.215Z,67.70
2019-01-30T00:55:39.917Z,67.20
2019-01-30T00:58:24.351Z,67.20
2019-01-30T01:01:09.646Z,67.10
2019-01-30T01:03:54.342Z,67.60
2019-01-30T01:06:39.810Z,67.60
2019-01-30T01:09:33.390Z,67.70
2019-01-30T01:12:18.164Z,67.60
2019-01-30T01:15:04.350Z,67.50
2019-01-30T01:17:49.057Z,67.50
2019-01-30T01:20:33.986Z,68.00
2019-01-30T01:23:18.898Z,68.40
2019-01-30T01:26:03.696Z,69.00
2019-01-30T01:28:48.386Z,69.20
2019-01-30T01:31:33.586Z,69.20
2019-01-30T01:34:27.434Z,69.20
2019-01-30T01:37:12.354Z,68.90
2019-01-30T01:39:57.246Z,69.00
2019-01-30T01:42:50.942Z,69.00
2019-01-30T01:45:35.398Z,68.80
2019-01-30T01:48:19.991Z,68.50
2019-01-30T01:51:05.658Z,68.90
2019-01-30T01:53:50.211Z,68.60
2019-01-30T01:56:34.632Z,68.90
2019-01-30T01:59:18.870Z,68.50
2019-01-30T02:02:12.039Z,68.50
2019-01-30T02:04:56.571Z,67.80
2019-01-30T02:07:41.415Z,67.90
2019-01-30T02:10:26.267Z,67.80
2019-01-30T02:13:10.390Z,67.80
2019-01-30T02:16:03.843Z,67.50
2019-01-30T02:18:48.348Z,67.30
2019-01-30T02:21:32.767Z,67.40
2019-01-30T02:24:26.249Z,66.80
2019-01-30T02:27:10.975Z,66.90
2019-01-30T02:29:55.098Z,66.50
2019-01-30T02:32:39.558Z,66.40
2019-01-30T02:35:32.962Z,67.00
2019-01-30T02:38:17.434Z,66.00
2019-01-30T02:41:01.947Z,65.00
2019-01-30T02:43:46.706Z,64.70
2019-01-30T02:46:31.423Z,64.70
2019-01-30T02:49:24.778Z,64.00
2019-01-30T02:52:09.790Z,64.60
2019-01-30T02:55:03.469Z,64.80
2019-01-30T02:57:47.982Z,65.10
2019-01-30T03:00:32.309Z,65.50
2019-01-30T03:03:25.595Z,65.70
2019-01-30T03:06:10.564Z,65.60
2019-01-30T03:08:55.000Z,65.80
2019-01-30T03:11:39.964Z,66.20
2019-01-30T03:14:25.066Z,66.50
2019-01-30T03:17:10.001Z,66.70
2019-01-30T03:20:03.838Z,66.70
2019-01-30T03:22:48.294Z,66.80
2019-01-30T03:25:32.875Z,66.40
2019-01-30T03:28:17.566Z,66.50
2019-01-30T03:31:17.266Z,66.10
2019-01-30T03:33:48.752Z,66.10
2019-01-30T03:36:33.774Z,66.10
2019-01-30T03:39:18.704Z,65.30
2019-01-30T03:42:03.325Z,64.70
2019-01-30T03:44:47.983Z,65.40
2019-01-30T03:47:32.359Z,65.20
2019-01-30T03:50:25.580Z,64.70
2019-01-30T03:53:10.439Z,65.00
2019-01-30T03:55:55.189Z,64.90
2019-01-30T03:58:40.290Z,64.60
2019-01-30T04:01:26.665Z,64.50
2019-01-30T04:04:21.736Z,65.00
2019-01-30T04:07:14.913Z,65.30
2019-01-30T04:09:59.439Z,65.70
2019-01-30T04:12:43.535Z,65.50
2019-01-30T04:15:36.907Z,65.20
2019-01-30T04:18:21.515Z,65.70
2019-01-30T04:21:06.504Z,65.70
2019-01-30T04:23:51.316Z,65.40
2019-01-30T04:26:35.916Z,65.60
2019-01-30T04:29:20.793Z,65.80
2019-01-30T04:32:05.509Z,65.30
2019-01-30T04:34:50.540Z,65.20
2019-01-30T04:37:34.631Z,65.00
2019-01-30T04:40:28.000Z,65.20
2019-01-30T04:43:12.640Z,64.80
2019-01-30T04:45:57.397Z,64.30
2019-01-30T04:48:41.987Z,63.70
2019-01-30T04:51:26.795Z,63.70
2019-01-30T04:54:11.332Z,63.90
2019-01-30T04:57:04.546Z,64.00
2019-01-30T04:59:49.097Z,64.70
2019-01-30T05:02:33.618Z,65.60
2019-01-30T05:05:18.147Z,65.00
2019-01-30T05:08:11.311Z,64.00
2019-01-30T05:10:55.807Z,63.50
2019-01-30T05:13:39.922Z,63.10
2019-01-30T05:16:33.418Z,62.80
2019-01-30T05:19:18.564Z,63.90
2019-01-30T05:22:03.375Z,64.60
2019-01-30T05:24:48.423Z,64.20
2019-01-30T05:27:42.215Z,64.20
2019-01-30T05:30:26.667Z,63.70
2019-01-30T05:33:11.356Z,64.10
2019-01-30T05:35:56.526Z,64.20
2019-01-30T05:38:41.337Z,64.60
2019-01-30T05:41:26.168Z,64.20
2019-01-30T05:44:10.781Z,63.40
2019-01-30T05:46:55.391Z,63.70
2019-01-30T05:49:39.754Z,64.30
2019-01-30T05:52:24.543Z,64.30
2019-01-30T05:55:09.688Z,63.30
2019-01-30T05:57:54.058Z,63.70
2019-01-30T06:00:49.368Z,63.50
2019-01-30T06:03:44.824Z,63.10
2019-01-30T06:06:29.575Z,62.40
2019-01-30T06:09:14.161Z,61.30
2019-01-30T06:11:58.920Z,61.30
2019-01-30T06:14:43.755Z,61.20
2019-01-30T06:17:28.616Z,60.20
2019-01-30T06:20:13.074Z,60.70
2019-01-30T06:22:58.023Z,61.50
2019-01-30T06:25:42.215Z,62.00
2019-01-30T06:28:37.763Z,61.50
2019-01-30T06:31:23.571Z,61.60
2019-01-30T06:34:08.200Z,60.80
2019-01-30T06:36:53.183Z,61.00
2019-01-30T06:39:38.052Z,60.90
2019-01-30T06:42:22.401Z,59.10
2019-01-30T06:45:08.550Z,59.10
2019-01-30T06:47:55.111Z,59.70
2019-01-30T06:50:39.270Z,59.10
2019-01-30T06:53:32.950Z,59.00
2019-01-30T06:56:17.786Z,58.30
2019-01-30T06:59:02.425Z,58.30
2019-01-30T07:01:47.345Z,58.10
2019-01-30T07:04:31.751Z,58.30
2019-01-30T07:07:16.387Z,58.50
2019-01-30T07:10:01.417Z,57.90
2019-01-30T07:12:46.346Z,57.80
2019-01-30T07:15:31.524Z,57.70
2019-01-30T07:18:16.207Z,57.30
2019-01-30T07:21:00.759Z,57.20
2019-01-30T07:23:45.267Z,57.10
2019-01-30T07:26:29.604Z,57.50
2019-01-30T07:29:23.395Z,57.80
2019-01-30T07:32:07.655Z,58.30
2019-01-30T07:34:52.555Z,58.50
2019-01-30T07:37:36.855Z,57.70
2019-01-30T07:40:22.063Z,57.90
2019-01-30T07:43:06.278Z,58.10
2019-01-30T07:45:50.699Z,58.10
2019-01-30T07:48:44.571Z,58.40
2019-01-30T07:51:29.863Z,58.70
2019-01-30T07:54:23.095Z,58.70
2019-01-30T07:57:07.955Z,59.20
2019-01-30T07:59:52.331Z,59.40
2019-01-30T08:02:37.088Z,58.90
2019-01-30T08:05:22.859Z,58.60
2019-01-30T08:08:17.066Z,58.00
2019-01-30T08:11:16.647Z,57.60
2019-01-30T08:14:01.946Z,57.30
2019-01-30T08:16:55.854Z,57.00
2019-01-30T08:19:40.410Z,58.60
2019-01-30T08:22:24.737Z,58.50
2019-01-30T08:25:09.400Z,60.00
2019-01-30T08:27:54.337Z,60.00
2019-01-30T08:30:39.556Z,59.40
2019-01-30T08:33:24.068Z,58.70
2019-01-30T08:36:11.851Z,58.40
2019-01-30T08:38:56.371Z,58.00
2019-01-30T08:41:49.903Z,58.90
2019-01-30T08:44:34.688Z,59.10
2019-01-30T08:47:19.371Z,58.20
2019-01-30T08:50:04.587Z,58.00
2019-01-30T08:52:58.698Z,57.60
2019-01-30T08:55:43.266Z,56.80
2019-01-30T08:58:27.528Z,56.40
2019-01-30T09:01:12.140Z,56.30
2019-01-30T09:04:05.423Z,56.00
2019-01-30T09:06:49.623Z,56.00
2019-01-30T09:09:34.200Z,56.30
2019-01-30T09:12:27.779Z,56.50
2019-01-30T09:15:12.415Z,57.10
2019-01-30T09:17:57.901Z,58.40
2019-01-30T09:20:51.247Z,59.10
2019-01-30T09:23:36.129Z,58.70
2019-01-30T09:26:20.399Z,58.30
2019-01-30T09:29:15.264Z,58.30
2019-01-30T09:32:08.907Z,59.20
2019-01-30T09:34:53.876Z,59.30
2019-01-30T09:37:39.469Z,59.80
2019-01-30T09:40:24.136Z,59.00
2019-01-30T09:43:17.058Z,58.60
2019-01-30T09:46:01.733Z,57.90
2019-01-30T09:48:46.735Z,57.90
2019-01-30T09:51:31.471Z,57.70
2019-01-30T09:54:16.268Z,58.60
2019-01-30T09:57:00.615Z,58.90
2019-01-30T09:59:53.895Z,58.60
2019-01-30T10:02:39.031Z,59.30
2019-01-30T10:05:23.581Z,59.40
2019-01-30T10:08:07.848Z,58.80
2019-01-30T10:10:52.423Z,58.90
2019-01-30T10:13:45.586Z,58.40
2019-01-30T10:16:30.343Z,58.10
2019-01-30T10:19:15.007Z,57.60
2019-01-30T10:21:59.858Z,57.50
2019-01-30T10:24:44.880Z,55.90
2019-01-30T10:27:29.719Z,55.30
2019-01-30T10:30:14.419Z,54.80
2019-01-30T10:32:59.640Z,54.20
2019-01-30T10:35:44.330Z,54.00
2019-01-30T10:38:28.759Z,53.70
2019-01-30T10:41:13.279Z,54.60
2019-01-30T10:43:57.820Z,54.90
2019-01-30T10:46:42.315Z,54.90
2019-01-30T10:49:27.707Z,55.90
2019-01-30T10:52:12.319Z,56.60
2019-01-30T10:54:56.819Z,56.60
2019-01-30T10:57:50.175Z,56.90
2019-01-30T11:00:35.139Z,57.60
2019-01-30T11:03:19.774Z,57.60
2019-01-30T11:06:04.415Z,57.80
2019-01-30T11:08:49.415Z,58.30
2019-01-30T11:11:34.271Z,58.00
2019-01-30T11:14:18.975Z,56.90
2019-01-30T11:17:03.572Z,57.40
2019-01-30T11:19:48.066Z,57.60
2019-01-30T11:22:32.965Z,57.30
2019-01-30T11:25:17.511Z,56.70
2019-01-30T11:28:01.992Z,56.30
2019-01-30T11:30:55.761Z,56.60
2019-01-30T11:33:40.823Z,56.30
2019-01-30T11:36:34.587Z,56.40
2019-01-30T11:39:19.314Z,56.70
2019-01-30T11:42:03.804Z,56.40
2019-01-30T11:44:48.298Z,56.70
2019-01-30T11:47:33.315Z,56.50
2019-01-30T11:50:17.947Z,56.20
2019-01-30T11:53:02.811Z,56.40
2019-01-30T11:55:46.927Z,56.20
2019-01-30T11:58:40.085Z,56.90
2019-01-30T12:01:24.919Z,56.80
2019-01-30T12:04:17.697Z,57.20
2019-01-30T12:06:56.054Z,57.60
2019-01-30T12:09:40.353Z,57.50
2019-01-30T12:12:33.631Z,57.60
2019-01-30T12:15:18.216Z,58.10
2019-01-30T12:18:02.727Z,58.20
2019-01-30T12:20:47.686Z,58.40
2019-01-30T12:23:32.259Z,58.70
2019-01-30T12:26:25.363Z,58.70
2019-01-30T12:29:10.134Z,59.50
2019-01-30T12:31:54.847Z,59.20
2019-01-30T12:34:39.556Z,59.20
2019-01-30T12:37:24.166Z,59.00
2019-01-30T12:40:09.239Z,58.80
2019-01-30T12:42:53.579Z,58.80
2019-01-30T12:45:38.091Z,58.80
2019-01-30T12:48:31.383Z,58.80
2019-01-30T12:51:16.375Z,58.30
2019-01-30T12:54:00.471Z,58.30
2019-01-30T12:56:44.989Z,58.00
2019-01-30T12:59:38.311Z,58.00
2019-01-30T13:02:23.375Z,58.00
2019-01-30T13:05:08.289Z,57.90
2019-01-30T13:07:52.984Z,58.10
2019-01-30T13:10:37.035Z,58.60
2019-01-30T13:13:22.000Z,59.80
2019-01-30T13:16:06.771Z,62.70
2019-01-30T13:18:51.283Z,66.10
2019-01-30T13:21:44.306Z,67.90
2019-01-30T13:24:28.946Z,70.00
2019-01-30T13:27:13.807Z,69.70
2019-01-30T13:29:58.571Z,68.30
2019-01-30T13:32:43.639Z,67.50
2019-01-30T13:35:29.115Z,66.30
2019-01-30T13:38:22.829Z,66.40
2019-01-30T13:41:07.788Z,67.10
2019-01-30T13:44:01.511Z,67.40
2019-01-30T13:46:46.152Z,67.30
2019-01-30T13:49:30.870Z,67.40
2019-01-30T13:52:15.364Z,67.20
2019-01-30T13:55:00.310Z,66.50
2019-01-30T13:57:45.060Z,66.60
2019-01-30T14:00:30.334Z,67.20
2019-01-30T14:03:15.791Z,66.40
2019-01-30T14:06:29.231Z,66.20
2019-01-30T14:09:14.474Z,65.90
2019-01-30T14:11:59.072Z,66.10
2019-01-30T14:14:43.597Z,66.30
2019-01-30T14:17:28.387Z,66.80
2019-01-30T14:20:13.225Z,67.10
2019-01-30T14:22:56.652Z,68.20
2019-01-30T14:25:48.553Z,69.20
2019-01-30T14:29:01.068Z,69.60
2019-01-30T14:31:45.356Z,69.60
2019-01-30T14:34:29.988Z,70.10
2019-01-30T14:37:23.659Z,70.40
2019-01-30T14:40:08.365Z,71.20
2019-01-30T14:42:53.505Z,72.70
2019-01-30T14:45:46.897Z,72.70
2019-01-30T14:48:31.677Z,72.50
2019-01-30T14:51:16.935Z,72.90
2019-01-30T14:54:01.998Z,73.10
2019-01-30T14:56:55.539Z,73.20
2019-01-30T14:59:40.301Z,72.30
2019-01-30T15:02:25.160Z,72.50
2019-01-30T15:05:21.144Z,72.90
2019-01-30T15:07:55.788Z,74.20
2019-01-30T15:10:40.621Z,74.00
2019-01-30T15:13:25.583Z,74.60
2019-01-30T15:16:10.628Z,77.10
2019-01-30T15:18:55.367Z,78.80
2019-01-30T15:21:39.906Z,80.00
2019-01-30T15:24:24.603Z,80.50
2019-01-30T15:27:09.051Z,80.80
2019-01-30T15:30:02.511Z,82.30
2019-01-30T15:32:47.062Z,82.50
2019-01-30T15:35:33.693Z,82.80
2019-01-30T15:38:20.676Z,82.90
2019-01-30T15:41:05.098Z,82.50
2019-01-30T15:43:50.119Z,82.80
2019-01-30T15:46:43.642Z,82.10
2019-01-30T15:49:28.358Z,81.20
2019-01-30T15:52:12.887Z,80.50
2019-01-30T15:54:57.770Z,80.70
2019-01-30T15:57:42.514Z,80.30
2019-01-30T16:00:29.397Z,80.10
2019-01-30T16:03:13.505Z,80.80
2019-01-30T16:05:58.065Z,81.20
2019-01-30T16:08:53.231Z,81.10
2019-01-30T16:11:37.927Z,80.80
2019-01-30T16:14:22.677Z,80.90
2019-01-30T16:17:07.343Z,80.10
2019-01-30T16:19:53.616Z,79.10
2019-01-30T16:22:38.284Z,79.90
2019-01-30T16:25:31.363Z,79.80
2019-01-30T16:28:15.842Z,79.90
2019-01-30T16:31:00.775Z,80.70
2019-01-30T16:33:45.466Z,81.70
2019-01-30T16:36:29.812Z,82.60
2019-01-30T16:39:23.270Z,83.00
2019-01-30T16:42:07.606Z,82.50
2019-01-30T16:44:52.592Z,81.80
2019-01-30T16:47:37.668Z,81.20
2019-01-30T16:50:22.602Z,81.10
2019-01-30T16:53:08.217Z,81.20
2019-01-30T16:55:53.179Z,81.20
2019-01-30T16:58:37.744Z,80.00
2019-01-30T17:01:22.415Z,79.30
2019-01-30T17:04:16.616Z,79.00
2019-01-30T17:07:00.838Z,77.40
2019-01-30T17:09:45.532Z,75.40
2019-01-30T17:12:30.099Z,73.90
2019-01-30T17:15:14.887Z,73.50
2019-01-30T17:17:59.483Z,71.80
2019-01-30T17:20:43.791Z,71.20
2019-01-30T17:23:37.435Z,71.90
2019-01-30T17:26:31.352Z,72.60
2019-01-30T17:29:15.718Z,73.00
2019-01-30T17:32:01.210Z,72.80
2019-01-30T17:34:54.603Z,71.90
2019-01-30T17:37:39.499Z,71.40
2019-01-30T17:40:24.015Z,73.10
2019-01-30T17:43:08.748Z,73.50
2019-01-30T17:45:53.543Z,74.50
2019-01-30T17:48:37.928Z,74.50
2019-01-30T17:51:31.331Z,75.30
2019-01-30T17:54:18.201Z,76.40
2019-01-30T17:57:02.088Z,77.30
2019-01-30T17:59:47.455Z,77.80
2019-01-30T18:02:32.394Z,77.10
2019-01-30T18:05:17.251Z,77.90
2019-01-30T18:08:02.399Z,76.90
2019-01-30T18:10:55.755Z,76.70
2019-01-30T18:13:40.374Z,75.00
2019-01-30T18:16:26.820Z,74.00
2019-01-30T18:19:10.922Z,73.10
2019-01-30T18:22:04.315Z,71.40
2019-01-30T18:24:49.467Z,71.70
2019-01-30T18:27:34.299Z,68.80
2019-01-30T18:30:28.419Z,66.30
2019-01-30T18:33:22.071Z,66.40
2019-01-30T18:36:06.655Z,66.50
2019-01-30T18:38:51.812Z,66.40
2019-01-30T18:41:36.775Z,68.00
2019-01-30T18:44:21.932Z,68.40
2019-01-30T18:47:07.372Z,69.10
2019-01-30T18:49:52.111Z,69.50
2019-01-30T18:52:36.823Z,69.40
2019-01-30T18:55:22.047Z,69.20
2019-01-30T18:58:06.683Z,69.10
2019-01-30T19:00:51.220Z,70.00
2019-01-30T19:03:35.849Z,70.60
2019-01-30T19:06:20.056Z,71.50
2019-01-30T19:09:05.679Z,71.30
2019-01-30T19:11:52.206Z,71.30
2019-01-30T19:14:35.208Z,71.30
2019-01-30T19:17:27.427Z,71.10
2019-01-30T19:20:21.702Z,71.70
2019-01-30T19:23:18.763Z,71.10
2019-01-30T19:26:18.462Z,69.70
2019-01-30T19:29:03.296Z,70.10
2019-01-30T19:31:47.976Z,71.10
2019-01-30T19:34:32.781Z,71.70
2019-01-30T19:37:17.295Z,71.50
2019-01-30T19:40:01.671Z,71.90
2019-01-30T19:42:46.222Z,72.70
2019-01-30T19:45:39.368Z,72.80
2019-01-30T19:48:24.423Z,72.60
2019-01-30T19:51:09.232Z,71.60
2019-01-30T19:53:53.693Z,70.10
2019-01-30T19:56:38.557Z,68.00
2019-01-30T19:59:22.948Z,68.30
2019-01-30T20:02:07.671Z,68.60
2019-01-30T20:04:51.727Z,68.90
2019-01-30T20:07:36.243Z,68.10
2019-01-30T20:10:20.891Z,67.90
2019-01-30T20:13:05.255Z,66.80
2019-01-30T20:15:49.328Z,67.90
2019-01-30T20:18:33.703Z,68.10
2019-01-30T20:21:18.323Z,68.50
2019-01-30T20:24:02.983Z,68.90
2019-01-30T20:26:48.184Z,68.10
2019-01-30T20:29:32.695Z,67.10
2019-01-30T20:32:17.223Z,67.00
2019-01-30T20:35:01.758Z,66.50
2019-01-30T20:37:47.810Z,65.80
2019-01-30T20:40:43.818Z,65.20
2019-01-30T20:43:37.247Z,65.30
2019-01-30T20:46:21.699Z,65.40
2019-01-30T20:49:06.823Z,66.30
2019-01-30T20:51:51.492Z,67.70
2019-01-30T20:54:36.277Z,68.00
2019-01-30T20:57:20.832Z,68.50
2019-01-30T21:00:15.776Z,68.10
2019-01-30T21:03:09.526Z,67.70
2019-01-30T21:05:55.497Z,67.40
2019-01-30T21:08:39.879Z,66.90
2019-01-30T21:11:24.768Z,66.90
2019-01-30T21:14:09.267Z,66.80
2019-01-30T21:17:02.671Z,67.30
2019-01-30T21:19:47.431Z,67.60
2019-01-30T21:22:32.189Z,67.50
2019-01-30T21:25:16.892Z,67.50
2019-01-30T21:28:01.443Z,68.40
2019-01-30T21:30:46.166Z,69.30
2019-01-30T21:33:30.751Z,70.20
2019-01-30T21:36:23.834Z,70.70
2019-01-30T21:39:08.439Z,70.80
2019-01-30T21:41:53.086Z,70.90
2019-01-30T21:44:37.846Z,70.10
2019-01-30T21:47:22.227Z,69.80
2019-01-30T21:50:15.567Z,70.10
2019-01-30T21:53:00.251Z,70.40
2019-01-30T21:55:45.159Z,70.60
2019-01-30T21:58:30.094Z,70.60
2019-01-30T22:01:14.674Z,71.10
2019-01-30T22:03:59.652Z,71.20
2019-01-30T22:06:43.887Z,72.00
2019-01-30T22:09:28.855Z,73.10
2019-01-30T22:12:13.278Z,74.20
2019-01-30T22:15:06.589Z,74.90
2019-01-30T22:17:51.218Z,75.60
2019-01-30T22:20:35.740Z,75.70
2019-01-30T22:23:20.477Z,75.70
2019-01-30T22:26:05.092Z,75.70
2019-01-30T22:28:49.747Z,75.90
2019-01-30T22:31:43.204Z,76.20
2019-01-30T22:34:27.814Z,76.10
2019-01-30T22:37:12.652Z,76.30
2019-01-30T22:39:57.175Z,76.20
2019-01-30T22:42:42.030Z,76.10
2019-01-30T22:45:26.187Z,76.00
2019-01-30T22:48:19.657Z,76.20
2019-01-30T22:51:04.431Z,75.80
2019-01-30T22:53:49.099Z,75.70
2019-01-30T22:56:33.498Z,75.70
2019-01-30T22:59:17.930Z,75.80
2019-01-30T23:02:11.340Z,75.60
2019-01-30T23:04:55.989Z,75.80
2019-01-30T23:07:40.428Z,75.70
2019-01-30T23:10:24.726Z,75.90
2019-01-30T23:13:18.250Z,76.00
2019-01-30T23:16:02.778Z,76.40
2019-01-30T23:18:47.392Z,76.80
2019-01-30T23:21:31.779Z,76.80
2019-01-30T23:24:24.682Z,77.00
2019-01-30T23:27:08.807Z,77.00
2019-01-30T23:30:02.404Z,76.90
2019-01-30T23:32:48.570Z,76.70
2019-01-30T23:35:33.063Z,76.00
2019-01-30T23:38:17.865Z,75.60
2019-01-30T23:41:02.839Z,75.90
2019-01-30T23:43:47.652Z,75.80
2019-01-30T23:46:32.031Z,75.80
2019-01-30T23:49:25.283Z,75.90
2019-01-30T23:52:10.067Z,75.50
2019-01-30T23:54:54.619Z,75.20
2019-01-30T23:57:39.211Z,75.10
